メインページ
METAR-TAF:

METAR-TAF

空港 :

Devils Lake, ノースダコタ州, アメリカ合衆国

緯度: 48-07N, 経度: 098-55W, 海抜: 443m

現時点の気象観測

当レポートは16分前の10:56(UTC)に作成
南西の風 6kt
気温 -7°C
湿度 79%
気圧 1009 hPa
視程: 16.1km
晴天

METAR: KDVL 221056Z AUTO 22006KT 10SM CLR M07/M10 A2980 RMK AO2 SLP679 T10671100 FZRANO

時間: 05:12 (11:12 UTC)

予報

当レポートは5時間50分前の05:22(UTC)に作成
予報は22日の 06時(UTC)から 23日の 06時(UTC)まで有効
南/南西の風 7kt
視程: 10km
晴天
22日の 0800時(UTC)から
西/南西の風 9kt
視程: 10km
晴天
22日の 1800時(UTC)から
西の風 9kt
視程: 10km
高度25000ftの雲はほとんどない

TAF: KDVL 220522Z 2206/2306 21007KT P6SM SKC FM220800 24009KT P6SM SKC FM221800 27009KT P6SM FEW250

4,000以上の空港の気象観測と天気予報(METAR報とTAF報)

利用可能な観測所は地図上に黄色い丸と赤い丸で示す。

丸の上にカーソルを重ねると観測所名を参照できる。

次にクリックすると気象観測と天気予報を参照できる。

マップの切り替え:黒色「×」印の緑ボタンをクリックして拡大、「-」印の緑ボタンをクリックして縮小、緑色の三角印をクリックして隣りの地図に切り替え


METAR-TAF: